createdAt,value
2022-08-09T00:00:11.292Z,55.42
2022-08-09T00:02:49.441Z,57.10
2022-08-09T00:06:16.586Z,54.60
2022-08-09T00:08:09.990Z,52.95
2022-08-09T00:10:39.225Z,53.85
2022-08-09T00:13:16.767Z,53.85
2022-08-09T00:15:59.362Z,54.88
2022-08-09T00:18:35.832Z,56.85
2022-08-09T00:21:08.957Z,57.97
2022-08-09T00:23:56.724Z,54.45
2022-08-09T00:26:30.125Z,53.90
2022-08-09T00:29:02.246Z,55.78
2022-08-09T00:32:00.948Z,52.70
2022-08-09T00:34:19.272Z,55.00
2022-08-09T00:36:48.923Z,52.33
2022-08-09T00:40:09.793Z,56.80
2022-08-09T00:44:11.499Z,53.15
2022-08-09T00:44:53.633Z,56.03
2022-08-09T00:47:24.681Z,57.00
2022-08-09T00:49:55.051Z,54.05
2022-08-09T00:52:30.163Z,58.15
2022-08-09T00:55:02.617Z,55.03
2022-08-09T00:57:34.645Z,60.30
2022-08-09T01:00:21.391Z,60.28
2022-08-09T01:03:04.129Z,59.00
2022-08-09T01:05:56.921Z,59.47
2022-08-09T01:08:35.345Z,56.45
2022-08-09T01:11:15.001Z,58.88
2022-08-09T01:13:59.898Z,60.33
2022-08-09T01:16:47.322Z,60.83
2022-08-09T01:19:42.370Z,67.13
2022-08-09T01:22:32.814Z,58.78
2022-08-09T01:25:04.182Z,59.80
2022-08-09T01:27:33.390Z,67.63
2022-08-09T01:30:04.601Z,66.00
2022-08-09T01:32:46.549Z,68.57
2022-08-09T01:35:37.930Z,62.80
2022-08-09T01:38:15.763Z,66.55
2022-08-09T01:41:07.121Z,67.90
2022-08-09T01:43:51.218Z,69.93
2022-08-09T01:46:47.163Z,66.47
2022-08-09T01:49:18.580Z,63.50
2022-08-09T01:52:07.030Z,67.70
2022-08-09T01:54:51.402Z,72.00
2022-08-09T01:57:39.833Z,69.70
2022-08-09T02:00:35.142Z,70.43
2022-08-09T02:03:03.232Z,66.35
2022-08-09T02:05:38.236Z,67.28
2022-08-09T02:08:40.945Z,72.95
2022-08-09T02:11:17.272Z,72.82
2022-08-09T02:14:07.967Z,80.13
2022-08-09T02:16:59.402Z,73.65
2022-08-09T02:19:38.748Z,79.10
2022-08-09T02:22:37.147Z,76.40
2022-08-09T02:25:15.132Z,78.60
2022-08-09T02:28:00.137Z,78.50
2022-08-09T02:30:38.125Z,74.38
2022-08-09T02:33:14.105Z,81.68
2022-08-09T02:38:35.580Z,73.43
2022-08-09T02:41:08.890Z,77.90
2022-08-09T02:43:53.982Z,77.03
2022-08-09T02:46:29.308Z,79.93
2022-08-09T02:49:06.306Z,81.82
2022-08-09T02:51:40.587Z,71.88
2022-08-09T02:54:13.872Z,78.78
2022-08-09T02:59:26.492Z,73.32
2022-08-09T03:02:09.722Z,72.18
2022-08-09T03:04:41.143Z,67.47
2022-08-09T03:07:14.106Z,69.50
2022-08-09T03:09:53.871Z,67.40
2022-08-09T03:12:25.701Z,62.08
2022-08-09T03:14:54.215Z,54.30
2022-08-09T03:17:26.725Z,47.47
2022-08-09T03:20:05.024Z,48.90
2022-08-09T03:22:44.884Z,53.30
2022-08-09T03:25:26.038Z,50.35
2022-08-09T03:28:03.908Z,50.60
2022-08-09T03:30:33.941Z,51.55
2022-08-09T03:33:17.796Z,47.85
2022-08-09T03:36:16.011Z,41.72
2022-08-09T03:38:42.986Z,47.78
2022-08-09T03:41:15.051Z,38.35
2022-08-09T03:44:04.055Z,35.03
2022-08-09T03:46:33.023Z,38.83
2022-08-09T03:49:03.995Z,40.85
2022-08-09T03:51:56.331Z,32.97
2022-08-09T03:54:29.138Z,34.05
2022-08-09T03:57:00.237Z,24.80
2022-08-09T03:59:43.270Z,23.13
2022-08-09T04:02:26.242Z,13.38
2022-08-09T04:05:00.738Z,19.33
2022-08-09T04:07:47.488Z,18.52
2022-08-09T04:10:20.805Z,23.10
2022-08-09T04:12:56.022Z,20.85
2022-08-09T04:15:40.522Z,16.55
2022-08-09T04:18:16.538Z,12.80
2022-08-09T04:20:49.663Z,13.80
2022-08-09T04:23:17.824Z,7.53
2022-08-09T04:25:51.803Z,6.80
2022-08-09T04:28:30.686Z,7.68
2022-08-09T04:31:07.774Z,7.70
2022-08-09T04:33:52.333Z,7.65
2022-08-09T04:36:26.720Z,6.68
2022-08-09T04:38:55.069Z,3.40
2022-08-09T04:41:24.434Z,3.55
2022-08-09T04:44:06.621Z,5.60
2022-08-09T04:46:59.089Z,4.60
2022-08-09T04:49:40.478Z,10.77
2022-08-09T04:52:22.205Z,4.13
2022-08-09T04:54:58.731Z,4.63
2022-08-09T04:57:27.154Z,5.13
2022-08-09T05:00:16.857Z,4.60
2022-08-09T05:02:52.459Z,4.18
2022-08-09T05:05:31.340Z,3.70
2022-08-09T05:07:59.013Z,4.03
2022-08-09T05:10:27.418Z,4.53
2022-08-09T05:12:54.934Z,5.47
2022-08-09T05:15:38.669Z,3.08
2022-08-09T05:18:38.874Z,3.50
2022-08-09T05:20:58.183Z,5.05
2022-08-09T05:23:53.769Z,5.50
2022-08-09T05:26:22.229Z,6.63
2022-08-09T05:29:00.648Z,8.73
2022-08-09T05:31:44.339Z,6.57
2022-08-09T05:34:17.043Z,9.10
2022-08-09T05:36:47.329Z,7.45
2022-08-09T05:39:29.012Z,9.70
2022-08-09T05:42:01.597Z,8.88
2022-08-09T05:44:34.904Z,8.82
2022-08-09T05:47:05.561Z,6.93
2022-08-09T05:50:24.544Z,8.77
2022-08-09T05:52:24.820Z,7.70
2022-08-09T05:55:07.012Z,7.60
2022-08-09T05:57:51.405Z,9.10
2022-08-09T06:00:29.097Z,9.05
2022-08-09T06:03:02.214Z,9.98
2022-08-09T06:05:50.499Z,8.32
2022-08-09T06:08:24.375Z,9.63
2022-08-09T06:10:58.158Z,7.65
2022-08-09T06:13:28.546Z,9.68
2022-08-09T06:16:05.244Z,8.07
2022-08-09T06:18:33.678Z,9.25
2022-08-09T06:21:02.374Z,10.15
2022-08-09T06:23:58.982Z,12.07
2022-08-09T06:26:22.431Z,14.07
2022-08-09T06:29:01.168Z,7.30
2022-08-09T06:31:39.842Z,13.05
2022-08-09T06:34:23.283Z,9.05
2022-08-09T06:36:57.420Z,9.15
2022-08-09T06:39:38.886Z,6.13
2022-08-09T06:42:24.440Z,10.73
2022-08-09T06:44:57.302Z,10.00
2022-08-09T06:47:24.889Z,12.82
2022-08-09T06:50:14.274Z,7.03
2022-08-09T06:52:48.777Z,8.65
2022-08-09T06:58:02.886Z,7.72
2022-08-09T07:00:55.637Z,10.95
2022-08-09T07:03:28.607Z,7.70
2022-08-09T07:06:02.740Z,5.03
2022-08-09T07:08:32.401Z,6.35
2022-08-09T07:10:59.850Z,6.00
2022-08-09T07:13:31.346Z,7.15
2022-08-09T07:16:42.255Z,5.80
2022-08-09T07:19:00.447Z,4.07
2022-08-09T07:21:30.919Z,5.43
2022-08-09T07:24:01.599Z,4.30
2022-08-09T07:26:32.633Z,7.50
2022-08-09T07:29:12.007Z,5.75
2022-08-09T07:31:46.022Z,4.97
2022-08-09T07:34:20.435Z,6.03
2022-08-09T07:36:50.241Z,5.78
2022-08-09T07:39:40.285Z,7.47
2022-08-09T07:42:09.419Z,5.95
2022-08-09T07:44:51.165Z,5.45
2022-08-09T07:47:21.078Z,6.13
2022-08-09T07:50:04.773Z,4.30
2022-08-09T07:52:35.896Z,5.78
2022-08-09T07:55:08.694Z,8.93
2022-08-09T07:57:36.522Z,5.80
2022-08-09T08:00:08.878Z,5.82
2022-08-09T08:02:43.150Z,4.75
2022-08-09T08:05:18.555Z,3.80
2022-08-09T08:08:59.713Z,5.22
2022-08-09T08:10:34.739Z,3.88
2022-08-09T08:13:04.050Z,4.75
2022-08-09T08:15:35.528Z,4.63
2022-08-09T08:18:05.242Z,4.68
2022-08-09T08:20:33.506Z,4.72
2022-08-09T08:23:03.669Z,4.07
2022-08-09T08:25:44.261Z,3.95
2022-08-09T08:28:15.270Z,4.53
2022-08-09T08:30:44.658Z,5.10
2022-08-09T08:33:24.092Z,5.25
2022-08-09T08:35:59.360Z,4.85
2022-08-09T08:38:29.771Z,4.03
2022-08-09T08:40:58.372Z,4.85
2022-08-09T08:43:27.422Z,4.20
2022-08-09T08:46:03.735Z,5.57
2022-08-09T08:48:51.945Z,4.78
2022-08-09T08:51:23.204Z,4.22
2022-08-09T08:54:03.408Z,4.25
2022-08-09T08:56:36.578Z,4.25
2022-08-09T08:59:19.859Z,4.93
2022-08-09T09:01:53.077Z,5.35
2022-08-09T09:04:29.098Z,5.75
2022-08-09T09:07:01.438Z,4.38
2022-08-09T09:09:58.556Z,5.22
2022-08-09T09:12:22.294Z,4.68
2022-08-09T09:14:51.866Z,6.25
2022-08-09T09:17:20.992Z,5.07
2022-08-09T09:19:48.657Z,6.32
2022-08-09T09:22:26.921Z,8.75
2022-08-09T09:26:04.536Z,7.80
2022-08-09T09:28:05.948Z,5.85
2022-08-09T09:30:41.832Z,7.65
2022-08-09T09:33:13.618Z,8.35
2022-08-09T09:36:01.386Z,7.88
2022-08-09T09:38:46.748Z,9.07
2022-08-09T09:41:33.462Z,9.48
2022-08-09T09:44:27.676Z,8.13
2022-08-09T09:46:57.952Z,10.40
2022-08-09T09:49:55.984Z,11.90
2022-08-09T09:52:36.060Z,10.18
2022-08-09T09:55:16.342Z,10.52
2022-08-09T09:58:03.425Z,11.70
2022-08-09T10:00:54.707Z,10.20
2022-08-09T10:04:00.077Z,12.07
2022-08-09T10:06:39.231Z,10.65
2022-08-09T10:09:22.086Z,11.70
2022-08-09T10:12:12.081Z,11.98
2022-08-09T10:14:48.019Z,8.30
2022-08-09T10:17:55.150Z,10.85
2022-08-09T10:20:27.660Z,10.63
2022-08-09T10:23:16.948Z,12.50
2022-08-09T10:26:05.973Z,10.02
2022-08-09T10:28:35.479Z,13.63
2022-08-09T10:34:10.736Z,12.27
2022-08-09T10:36:40.201Z,12.73
2022-08-09T10:39:15.949Z,9.27
2022-08-09T10:41:47.525Z,10.52
2022-08-09T10:44:24.925Z,10.77
2022-08-09T10:48:11.953Z,10.88
2022-08-09T10:50:14.993Z,9.15
2022-08-09T10:53:10.273Z,8.65
2022-08-09T10:55:58.621Z,12.43
2022-08-09T10:58:34.473Z,7.90
2022-08-09T11:03:02.961Z,13.07
2022-08-09T11:04:27.778Z,12.95
2022-08-09T11:06:59.680Z,10.73
2022-08-09T11:09:41.220Z,11.30
2022-08-09T11:12:18.889Z,13.43
2022-08-09T11:15:01.791Z,9.00
2022-08-09T11:17:31.049Z,9.52
2022-08-09T11:20:10.261Z,20.73
2022-08-09T11:22:56.862Z,14.23
2022-08-09T11:25:47.987Z,12.23
2022-08-09T11:28:38.357Z,9.00
2022-08-09T11:31:49.167Z,9.07
2022-08-09T11:34:51.613Z,12.73
2022-08-09T11:37:28.028Z,10.52
2022-08-09T11:40:11.262Z,10.70
2022-08-09T11:42:51.248Z,8.20
2022-08-09T11:45:26.280Z,9.07
2022-08-09T11:48:33.097Z,7.00
2022-08-09T11:52:48.768Z,7.90
2022-08-09T11:54:21.527Z,8.43
2022-08-09T11:57:56.831Z,9.00
2022-08-09T12:00:30.997Z,7.05
2022-08-09T12:03:40.987Z,6.80
2022-08-09T12:05:50.505Z,10.48
2022-08-09T12:08:19.797Z,7.97
2022-08-09T12:10:53.572Z,8.27
2022-08-09T12:14:09.720Z,9.38
2022-08-09T12:16:38.236Z,7.38
2022-08-09T12:19:13.224Z,9.63
2022-08-09T12:21:51.024Z,8.60
2022-08-09T12:24:24.379Z,7.63
2022-08-09T12:29:13.893Z,7.55
2022-08-09T12:30:04.186Z,8.65
2022-08-09T12:32:42.669Z,9.25
2022-08-09T12:35:13.317Z,7.65
2022-08-09T12:37:52.447Z,8.02
2022-08-09T12:40:25.010Z,7.97
2022-08-09T12:42:53.865Z,7.85
2022-08-09T12:45:33.707Z,10.90
2022-08-09T12:48:20.461Z,8.50
2022-08-09T12:50:56.187Z,7.95
2022-08-09T12:53:35.015Z,7.38
2022-08-09T12:56:43.727Z,8.68
2022-08-09T12:59:22.521Z,10.48
2022-08-09T13:01:59.287Z,9.85
2022-08-09T13:04:36.894Z,7.60
2022-08-09T13:07:17.094Z,8.15
2022-08-09T13:09:55.413Z,8.95
2022-08-09T13:12:30.607Z,6.68
2022-08-09T13:15:09.680Z,10.68
2022-08-09T13:18:03.263Z,9.40
2022-08-09T13:21:03.992Z,10.18
2022-08-09T13:24:06.388Z,9.40
2022-08-09T13:26:37.440Z,8.35
2022-08-09T13:29:28.412Z,9.10
2022-08-09T13:32:17.350Z,8.63
2022-08-09T13:34:52.689Z,10.98
2022-08-09T13:37:51.139Z,9.38
2022-08-09T13:41:50.416Z,9.77
2022-08-09T13:42:57.736Z,10.13
2022-08-09T13:45:32.230Z,9.70
2022-08-09T13:48:14.580Z,9.82
2022-08-09T13:50:43.308Z,10.43
2022-08-09T13:53:11.017Z,13.00
2022-08-09T13:55:38.415Z,9.27
2022-08-09T13:58:11.516Z,8.30
2022-08-09T14:00:50.321Z,9.23
2022-08-09T14:04:01.436Z,9.60
2022-08-09T14:06:19.452Z,7.57
2022-08-09T14:08:54.507Z,11.43
2022-08-09T14:11:22.603Z,6.88
2022-08-09T14:14:16.150Z,9.60
2022-08-09T14:16:38.339Z,10.55
2022-08-09T14:19:07.818Z,9.38
2022-08-09T14:21:35.366Z,8.55
2022-08-09T14:24:10.479Z,9.40
2022-08-09T14:26:51.153Z,7.63
2022-08-09T14:29:25.820Z,9.23
2022-08-09T14:32:11.098Z,11.40
2022-08-09T14:34:41.146Z,10.00
2022-08-09T14:37:09.298Z,9.10
2022-08-09T14:39:46.609Z,9.98
2022-08-09T14:42:28.998Z,13.93
2022-08-09T14:46:55.114Z,12.02
2022-08-09T14:48:00.250Z,11.27
2022-08-09T14:50:34.600Z,11.23
2022-08-09T14:53:11.664Z,12.00
2022-08-09T14:55:49.813Z,15.23
2022-08-09T14:58:18.685Z,10.35
2022-08-09T15:00:48.344Z,9.73
2022-08-09T15:03:20.027Z,11.68
2022-08-09T15:05:50.278Z,10.50
2022-08-09T15:08:24.587Z,12.05
2022-08-09T15:11:00.529Z,11.18
2022-08-09T15:13:56.455Z,11.52
2022-08-09T15:16:17.469Z,11.93
2022-08-09T15:18:48.910Z,10.30
2022-08-09T15:21:55.920Z,9.25
2022-08-09T15:24:12.500Z,9.25
2022-08-09T15:26:45.969Z,11.25
2022-08-09T15:30:49.972Z,9.98
2022-08-09T15:32:02.898Z,10.90
2022-08-09T15:34:34.396Z,8.40
2022-08-09T15:37:04.074Z,14.10
2022-08-09T15:39:34.614Z,9.70
2022-08-09T15:42:11.576Z,9.73
2022-08-09T15:44:39.191Z,8.93
2022-08-09T15:47:07.013Z,10.07
2022-08-09T15:50:00.529Z,9.20
2022-08-09T15:52:30.559Z,9.52
2022-08-09T15:54:58.916Z,8.20
2022-08-09T15:57:34.948Z,9.80
2022-08-09T16:00:17.101Z,7.80
2022-08-09T16:02:56.096Z,9.88
2022-08-09T16:05:47.123Z,12.32
2022-08-09T16:08:29.852Z,7.65
2022-08-09T16:11:04.740Z,8.33
2022-08-09T16:14:04.857Z,10.88
2022-08-09T16:16:26.169Z,9.02
2022-08-09T16:18:56.455Z,8.90
2022-08-09T16:21:25.061Z,10.63
2022-08-09T16:24:05.245Z,11.05
2022-08-09T16:26:43.930Z,8.73
2022-08-09T16:29:20.127Z,8.25
2022-08-09T16:32:18.753Z,8.50
2022-08-09T16:34:56.513Z,8.95
2022-08-09T16:37:54.604Z,10.07
2022-08-09T16:40:20.378Z,8.35
2022-08-09T16:42:57.246Z,7.85
2022-08-09T16:45:24.837Z,7.82
2022-08-09T16:48:39.565Z,8.85
2022-08-09T16:50:49.620Z,8.07
2022-08-09T16:53:33.922Z,11.00
2022-08-09T16:56:07.562Z,6.43
2022-08-09T16:58:39.860Z,8.07
2022-08-09T17:01:10.566Z,8.50
2022-08-09T17:03:38.221Z,7.85
2022-08-09T17:06:28.981Z,7.90
2022-08-09T17:09:11.779Z,6.55
2022-08-09T17:11:44.671Z,8.63
2022-08-09T17:14:25.902Z,6.70
2022-08-09T17:17:00.067Z,6.43
2022-08-09T17:20:06.004Z,6.35
2022-08-09T17:22:25.124Z,6.63
2022-08-09T17:25:03.230Z,6.85
2022-08-09T17:27:33.374Z,5.90
2022-08-09T17:30:06.741Z,6.78
2022-08-09T17:32:38.302Z,6.28
2022-08-09T17:35:11.547Z,5.65
2022-08-09T17:38:12.141Z,4.65
2022-08-09T17:40:34.767Z,6.65
2022-08-09T17:43:32.834Z,7.35
2022-08-09T17:46:02.989Z,5.72
2022-08-09T17:48:52.058Z,6.25
2022-08-09T17:51:21.440Z,5.78
2022-08-09T17:53:52.925Z,5.63
2022-08-09T17:56:29.248Z,6.25
2022-08-09T17:59:09.625Z,5.15
2022-08-09T18:02:07.392Z,6.05
2022-08-09T18:04:29.723Z,5.88
2022-08-09T18:06:58.278Z,4.75
2022-08-09T18:09:40.523Z,5.47
2022-08-09T18:12:15.400Z,7.32
2022-08-09T18:14:53.750Z,6.70
2022-08-09T18:18:02.829Z,8.02
2022-08-09T18:21:00.836Z,5.73
2022-08-09T18:23:05.784Z,6.22
2022-08-09T18:25:52.517Z,7.07
2022-08-09T18:30:42.269Z,6.25
2022-08-09T18:31:15.363Z,5.03
2022-08-09T18:33:53.951Z,6.80
2022-08-09T18:36:31.938Z,9.77
2022-08-09T18:39:02.736Z,4.97
2022-08-09T18:41:34.495Z,5.78
2022-08-09T18:44:12.402Z,6.72
2022-08-09T18:46:49.687Z,5.50
2022-08-09T18:49:28.075Z,5.78
2022-08-09T18:51:59.889Z,7.15
2022-08-09T18:54:29.401Z,7.97
2022-08-09T18:57:05.521Z,6.97
2022-08-09T18:59:49.592Z,9.35
2022-08-09T19:02:30.543Z,8.70
2022-08-09T19:05:04.357Z,8.13
2022-08-09T19:07:43.224Z,9.57
2022-08-09T19:10:27.569Z,7.00
2022-08-09T19:13:04.675Z,11.65
2022-08-09T19:15:47.196Z,10.80
2022-08-09T19:18:33.018Z,9.88
2022-08-09T19:21:02.665Z,8.48
2022-08-09T19:24:32.713Z,8.68
2022-08-09T19:26:17.478Z,5.90
2022-08-09T19:28:48.911Z,9.77
2022-08-09T19:31:16.965Z,9.52
2022-08-09T19:33:44.401Z,8.95
2022-08-09T19:36:13.528Z,9.82
2022-08-09T19:38:41.135Z,8.45
2022-08-09T19:41:10.531Z,8.32
2022-08-09T19:43:57.891Z,9.65
2022-08-09T19:46:34.885Z,10.52
2022-08-09T19:50:08.329Z,12.35
2022-08-09T19:51:55.377Z,12.35
2022-08-09T19:54:25.811Z,13.13
2022-08-09T19:56:57.289Z,12.63
2022-08-09T19:59:58.343Z,13.15
2022-08-09T20:02:36.231Z,7.90
2022-08-09T20:05:09.829Z,10.48
2022-08-09T20:07:59.231Z,7.53
2022-08-09T20:10:36.536Z,10.25
2022-08-09T20:13:06.633Z,9.70
2022-08-09T20:16:37.975Z,11.63
2022-08-09T20:18:28.209Z,10.20
2022-08-09T20:20:57.331Z,10.02
2022-08-09T20:23:38.903Z,11.68
2022-08-09T20:28:48.860Z,9.65
2022-08-09T20:31:18.274Z,9.25
2022-08-09T20:33:52.485Z,10.20
2022-08-09T20:36:27.311Z,12.13
2022-08-09T20:39:29.069Z,12.30
2022-08-09T20:41:42.821Z,12.73
2022-08-09T20:44:10.821Z,10.23
2022-08-09T20:46:43.020Z,9.73
2022-08-09T20:49:16.023Z,11.77
2022-08-09T20:51:50.526Z,13.50
2022-08-09T20:54:18.384Z,15.93
2022-08-09T20:56:49.426Z,11.13
2022-08-09T20:59:25.107Z,13.90
2022-08-09T21:02:05.403Z,15.30
2022-08-09T21:05:56.984Z,12.68
2022-08-09T21:07:20.271Z,12.10
2022-08-09T21:09:58.563Z,11.65
2022-08-09T21:15:17.155Z,9.98
2022-08-09T21:18:22.016Z,15.05
2022-08-09T21:20:38.533Z,9.30
2022-08-09T21:23:09.310Z,11.18
2022-08-09T21:25:59.494Z,11.10
2022-08-09T21:28:34.744Z,11.93
2022-08-09T21:31:17.204Z,12.80
2022-08-09T21:33:50.733Z,13.30
2022-08-09T21:36:25.806Z,12.15
2022-08-09T21:38:57.523Z,13.63
2022-08-09T21:42:05.975Z,13.52
2022-08-09T21:44:32.763Z,10.70
2022-08-09T21:47:07.963Z,12.02
2022-08-09T21:49:40.541Z,11.88
2022-08-09T21:52:14.821Z,12.38
2022-08-09T21:55:03.181Z,12.50
2022-08-09T21:57:39.218Z,11.48
2022-08-09T22:00:31.887Z,12.50
2022-08-09T22:03:04.916Z,12.73
2022-08-09T22:05:37.013Z,14.25
2022-08-09T22:08:13.066Z,16.70
2022-08-09T22:11:05.176Z,14.77
2022-08-09T22:13:35.452Z,15.18
2022-08-09T22:16:08.810Z,13.60
2022-08-09T22:18:53.040Z,14.80
2022-08-09T22:21:50.280Z,16.00
2022-08-09T22:24:21.008Z,15.60
2022-08-09T22:26:52.799Z,17.05
2022-08-09T22:29:28.450Z,17.00
2022-08-09T22:32:02.269Z,17.48
2022-08-09T22:34:29.900Z,13.30
2022-08-09T22:36:58.957Z,13.93
2022-08-09T22:39:55.481Z,14.27
2022-08-09T22:42:21.501Z,17.38
2022-08-09T22:48:05.044Z,14.40
2022-08-09T22:48:16.321Z,13.30
2022-08-09T22:50:30.164Z,14.32
2022-08-09T22:52:58.861Z,15.48
2022-08-09T22:55:39.761Z,13.80
2022-08-09T22:58:30.949Z,17.45
2022-08-09T23:01:05.979Z,15.90
2022-08-09T23:04:04.778Z,14.30
2022-08-09T23:06:34.734Z,13.10
2022-08-09T23:09:07.161Z,15.15
2022-08-09T23:11:35.266Z,18.70
2022-08-09T23:14:03.858Z,15.13
2022-08-09T23:16:31.943Z,18.92
2022-08-09T23:18:59.685Z,15.07
2022-08-09T23:21:32.762Z,14.20
2022-08-09T23:24:06.100Z,13.73
2022-08-09T23:26:38.495Z,13.27
2022-08-09T23:29:13.930Z,20.63
2022-08-09T23:31:42.084Z,19.35
2022-08-09T23:34:09.626Z,13.40
2022-08-09T23:36:37.291Z,13.35
2022-08-09T23:39:06.728Z,13.25
2022-08-09T23:41:35.148Z,15.18
2022-08-09T23:44:03.361Z,14.30
2022-08-09T23:46:31.715Z,15.98
2022-08-09T23:49:00.202Z,18.52
2022-08-09T23:51:28.009Z,19.75
2022-08-09T23:54:02.645Z,16.65
2022-08-09T23:56:53.400Z,16.98
2022-08-09T23:59:22.937Z,17.30
